sensor_id;sensor_type;location;lat;lon;timestamp;P1;durP1;ratioP1;P2;durP2;ratioP2
48777;SDS011;34578;0.000;0.000;2023-05-16T00:02:40;3.60;;;2.60;;
48777;SDS011;34578;0.000;0.000;2023-05-16T00:07:41;2.40;;;2.20;;
48777;SDS011;34578;0.000;0.000;2023-05-16T00:12:43;2.17;;;1.80;;
48777;SDS011;34578;0.000;0.000;2023-05-16T00:17:50;2.80;;;2.20;;
48777;SDS011;34578;0.000;0.000;2023-05-16T00:22:51;3.00;;;2.10;;
48777;SDS011;34578;0.000;0.000;2023-05-16T00:27:52;2.07;;;1.83;;
48777;SDS011;34578;0.000;0.000;2023-05-16T00:32:53;3.03;;;2.50;;
48777;SDS011;34578;0.000;0.000;2023-05-16T00:37:55;2.20;;;2.00;;
48777;SDS011;34578;0.000;0.000;2023-05-16T00:42:55;2.10;;;1.65;;
48777;SDS011;34578;0.000;0.000;2023-05-16T00:47:55;2.50;;;2.27;;
48777;SDS011;34578;0.000;0.000;2023-05-16T00:52:56;2.93;;;2.60;;
48777;SDS011;34578;0.000;0.000;2023-05-16T00:57:56;2.97;;;2.67;;
48777;SDS011;34578;0.000;0.000;2023-05-16T01:02:58;3.75;;;2.80;;
48777;SDS011;34578;0.000;0.000;2023-05-16T01:07:59;3.55;;;2.85;;
48777;SDS011;34578;0.000;0.000;2023-05-16T01:13:00;1.73;;;1.63;;
48777;SDS011;34578;0.000;0.000;2023-05-16T01:34:00;1.90;;;1.70;;
48777;SDS011;34578;0.000;0.000;2023-05-16T01:39:02;1.90;;;1.70;;
48777;SDS011;34578;0.000;0.000;2023-05-16T01:44:05;2.35;;;2.15;;
48777;SDS011;34578;0.000;0.000;2023-05-16T01:49:19;2.03;;;1.83;;
48777;SDS011;34578;0.000;0.000;2023-05-16T01:54:36;2.03;;;1.70;;
48777;SDS011;34578;0.000;0.000;2023-05-16T01:59:38;4.25;;;2.97;;
48777;SDS011;34578;0.000;0.000;2023-05-16T02:04:39;3.17;;;2.72;;
48777;SDS011;34578;0.000;0.000;2023-05-16T02:09:39;3.90;;;3.20;;
48777;SDS011;34578;0.000;0.000;2023-05-16T02:14:40;2.83;;;2.22;;
48777;SDS011;34578;0.000;0.000;2023-05-16T02:19:41;2.08;;;1.90;;
48777;SDS011;34578;0.000;0.000;2023-05-16T02:24:41;2.27;;;1.97;;
48777;SDS011;34578;0.000;0.000;2023-05-16T02:29:42;2.30;;;2.10;;
48777;SDS011;34578;0.000;0.000;2023-05-16T02:34:42;1.93;;;1.73;;
48777;SDS011;34578;0.000;0.000;2023-05-16T02:39:42;2.40;;;1.93;;
48777;SDS011;34578;0.000;0.000;2023-05-16T02:44:43;2.40;;;1.80;;
48777;SDS011;34578;0.000;0.000;2023-05-16T02:49:43;2.40;;;2.00;;
48777;SDS011;34578;0.000;0.000;2023-05-16T02:54:44;2.50;;;1.50;;
48777;SDS011;34578;0.000;0.000;2023-05-16T02:59:44;1.73;;;1.63;;
48777;SDS011;34578;0.000;0.000;2023-05-16T03:04:45;2.83;;;2.30;;
48777;SDS011;34578;0.000;0.000;2023-05-16T03:09:45;2.77;;;2.37;;
48777;SDS011;34578;0.000;0.000;2023-05-16T03:14:45;3.07;;;2.57;;
48777;SDS011;34578;0.000;0.000;2023-05-16T03:19:46;2.97;;;2.20;;
48777;SDS011;34578;0.000;0.000;2023-05-16T03:24:46;2.13;;;1.92;;
48777;SDS011;34578;0.000;0.000;2023-05-16T03:29:46;2.00;;;1.80;;
48777;SDS011;34578;0.000;0.000;2023-05-16T03:34:47;2.10;;;1.90;;
48777;SDS011;34578;0.000;0.000;2023-05-16T03:39:47;1.90;;;1.80;;
48777;SDS011;34578;0.000;0.000;2023-05-16T03:44:48;2.65;;;1.90;;
48777;SDS011;34578;0.000;0.000;2023-05-16T03:49:48;1.85;;;1.75;;
48777;SDS011;34578;0.000;0.000;2023-05-16T03:54:48;3.73;;;2.40;;
48777;SDS011;34578;0.000;0.000;2023-05-16T03:59:49;3.10;;;2.13;;
48777;SDS011;34578;0.000;0.000;2023-05-16T04:04:49;2.63;;;1.97;;
48777;SDS011;34578;0.000;0.000;2023-05-16T04:09:50;3.58;;;2.17;;
48777;SDS011;34578;0.000;0.000;2023-05-16T04:14:51;3.03;;;2.47;;
48777;SDS011;34578;0.000;0.000;2023-05-16T04:19:51;2.28;;;2.08;;
48777;SDS011;34578;0.000;0.000;2023-05-16T04:24:51;4.27;;;2.33;;
48777;SDS011;34578;0.000;0.000;2023-05-16T04:29:52;2.60;;;2.20;;
48777;SDS011;34578;0.000;0.000;2023-05-16T04:34:52;2.77;;;2.30;;
48777;SDS011;34578;0.000;0.000;2023-05-16T04:39:53;3.60;;;2.42;;
48777;SDS011;34578;0.000;0.000;2023-05-16T04:44:53;1.95;;;1.75;;
48777;SDS011;34578;0.000;0.000;2023-05-16T04:49:55;2.75;;;2.55;;
48777;SDS011;34578;0.000;0.000;2023-05-16T04:54:55;3.87;;;3.23;;
48777;SDS011;34578;0.000;0.000;2023-05-16T04:59:58;3.13;;;2.83;;
48777;SDS011;34578;0.000;0.000;2023-05-16T05:04:58;3.93;;;2.63;;
48777;SDS011;34578;0.000;0.000;2023-05-16T05:09:59;4.33;;;2.50;;
48777;SDS011;34578;0.000;0.000;2023-05-16T05:14:59;4.83;;;2.73;;
48777;SDS011;34578;0.000;0.000;2023-05-16T05:19:59;4.00;;;3.28;;
48777;SDS011;34578;0.000;0.000;2023-05-16T05:25:05;6.57;;;3.30;;
48777;SDS011;34578;0.000;0.000;2023-05-16T05:30:06;12.38;;;4.25;;
48777;SDS011;34578;0.000;0.000;2023-05-16T05:35:07;6.55;;;4.30;;
48777;SDS011;34578;0.000;0.000;2023-05-16T05:40:08;7.10;;;3.20;;
48777;SDS011;34578;0.000;0.000;2023-05-16T05:45:08;3.58;;;2.80;;
48777;SDS011;34578;0.000;0.000;2023-05-16T05:50:09;5.50;;;3.28;;
48777;SDS011;34578;0.000;0.000;2023-05-16T05:55:13;5.60;;;3.15;;
48777;SDS011;34578;0.000;0.000;2023-05-16T06:00:14;3.60;;;3.30;;
48777;SDS011;34578;0.000;0.000;2023-05-16T06:05:14;4.32;;;2.75;;
48777;SDS011;34578;0.000;0.000;2023-05-16T06:10:15;3.30;;;2.40;;
48777;SDS011;34578;0.000;0.000;2023-05-16T06:15:15;4.93;;;2.47;;
48777;SDS011;34578;0.000;0.000;2023-05-16T06:20:15;3.33;;;2.17;;
48777;SDS011;34578;0.000;0.000;2023-05-16T06:25:16;3.55;;;2.20;;
48777;SDS011;34578;0.000;0.000;2023-05-16T06:30:16;3.97;;;2.40;;
48777;SDS011;34578;0.000;0.000;2023-05-16T06:35:17;4.45;;;2.63;;
48777;SDS011;34578;0.000;0.000;2023-05-16T06:40:17;4.70;;;2.42;;
48777;SDS011;34578;0.000;0.000;2023-05-16T06:45:18;2.75;;;2.40;;
48777;SDS011;34578;0.000;0.000;2023-05-16T06:50:18;3.83;;;2.73;;
48777;SDS011;34578;0.000;0.000;2023-05-16T06:55:18;2.58;;;2.00;;
48777;SDS011;34578;0.000;0.000;2023-05-16T07:00:19;3.50;;;1.93;;
48777;SDS011;34578;0.000;0.000;2023-05-16T07:05:20;2.45;;;2.00;;
48777;SDS011;34578;0.000;0.000;2023-05-16T07:10:20;2.25;;;2.00;;
48777;SDS011;34578;0.000;0.000;2023-05-16T07:15:21;3.42;;;1.83;;
48777;SDS011;34578;0.000;0.000;2023-05-16T07:20:21;3.07;;;1.57;;
48777;SDS011;34578;0.000;0.000;2023-05-16T07:25:22;2.47;;;2.28;;
48777;SDS011;34578;0.000;0.000;2023-05-16T07:30:23;2.60;;;2.15;;
48777;SDS011;34578;0.000;0.000;2023-05-16T07:35:23;3.10;;;1.60;;
48777;SDS011;34578;0.000;0.000;2023-05-16T07:40:24;3.50;;;1.93;;
48777;SDS011;34578;0.000;0.000;2023-05-16T07:45:27;2.00;;;1.80;;
48777;SDS011;34578;0.000;0.000;2023-05-16T07:50:27;2.70;;;2.17;;
48777;SDS011;34578;0.000;0.000;2023-05-16T07:55:28;3.47;;;2.10;;
48777;SDS011;34578;0.000;0.000;2023-05-16T08:00:28;2.47;;;2.00;;
48777;SDS011;34578;0.000;0.000;2023-05-16T08:05:29;4.55;;;2.00;;
48777;SDS011;34578;0.000;0.000;2023-05-16T08:10:29;3.00;;;1.83;;
48777;SDS011;34578;0.000;0.000;2023-05-16T08:15:30;1.70;;;1.57;;
48777;SDS011;34578;0.000;0.000;2023-05-16T08:20:30;1.60;;;1.50;;
48777;SDS011;34578;0.000;0.000;2023-05-16T08:25:30;2.20;;;1.60;;
48777;SDS011;34578;0.000;0.000;2023-05-16T08:30:31;2.27;;;1.60;;
48777;SDS011;34578;0.000;0.000;2023-05-16T08:35:31;1.93;;;1.30;;
48777;SDS011;34578;0.000;0.000;2023-05-16T08:40:34;1.83;;;1.35;;
48777;SDS011;34578;0.000;0.000;2023-05-16T08:45:34;1.65;;;1.50;;
48777;SDS011;34578;0.000;0.000;2023-05-16T08:50:35;2.37;;;2.17;;
48777;SDS011;34578;0.000;0.000;2023-05-16T08:55:35;2.58;;;1.90;;
48777;SDS011;34578;0.000;0.000;2023-05-16T09:00:37;1.67;;;1.58;;
48777;SDS011;34578;0.000;0.000;2023-05-16T09:05:38;2.17;;;1.75;;
48777;SDS011;34578;0.000;0.000;2023-05-16T09:10:40;1.98;;;1.55;;
48777;SDS011;34578;0.000;0.000;2023-05-16T09:15:40;1.42;;;1.30;;
48777;SDS011;34578;0.000;0.000;2023-05-16T09:20:45;1.50;;;1.40;;
48777;SDS011;34578;0.000;0.000;2023-05-16T09:25:51;1.60;;;1.50;;
48777;SDS011;34578;0.000;0.000;2023-05-16T09:30:52;1.60;;;1.50;;
48777;SDS011;34578;0.000;0.000;2023-05-16T09:35:54;1.50;;;1.40;;
48777;SDS011;34578;0.000;0.000;2023-05-16T09:40:55;1.83;;;1.73;;
48777;SDS011;34578;0.000;0.000;2023-05-16T09:45:57;1.45;;;1.35;;
48777;SDS011;34578;0.000;0.000;2023-05-16T09:50:58;1.60;;;1.50;;
48777;SDS011;34578;0.000;0.000;2023-05-16T10:01:06;1.67;;;1.58;;
48777;SDS011;34578;0.000;0.000;2023-05-16T10:06:07;3.17;;;1.92;;
48777;SDS011;34578;0.000;0.000;2023-05-16T10:11:08;1.83;;;1.50;;
48777;SDS011;34578;0.000;0.000;2023-05-16T10:16:10;1.80;;;1.70;;
48777;SDS011;34578;0.000;0.000;2023-05-16T10:21:14;1.40;;;1.30;;
48777;SDS011;34578;0.000;0.000;2023-05-16T10:26:17;1.42;;;1.27;;
48777;SDS011;34578;0.000;0.000;2023-05-16T10:31:20;1.65;;;1.55;;
48777;SDS011;34578;0.000;0.000;2023-05-16T10:36:21;1.38;;;1.02;;
48777;SDS011;34578;0.000;0.000;2023-05-16T10:41:23;1.63;;;1.45;;
48777;SDS011;34578;0.000;0.000;2023-05-16T10:46:25;1.58;;;1.48;;
48777;SDS011;34578;0.000;0.000;2023-05-16T10:51:34;2.00;;;1.80;;
48777;SDS011;34578;0.000;0.000;2023-05-16T10:56:35;1.52;;;1.42;;
48777;SDS011;34578;0.000;0.000;2023-05-16T11:01:36;1.92;;;1.65;;
48777;SDS011;34578;0.000;0.000;2023-05-16T11:22:12;1.92;;;1.70;;
48777;SDS011;34578;0.000;0.000;2023-05-16T11:27:29;2.38;;;1.50;;
48777;SDS011;34578;0.000;0.000;2023-05-16T11:32:35;1.50;;;1.40;;
48777;SDS011;34578;0.000;0.000;2023-05-16T11:37:38;1.48;;;1.33;;
48777;SDS011;34578;0.000;0.000;2023-05-16T11:42:40;1.60;;;1.50;;
48777;SDS011;34578;0.000;0.000;2023-05-16T11:47:43;1.65;;;1.55;;
48777;SDS011;34578;0.000;0.000;2023-05-16T11:52:49;2.30;;;1.67;;
48777;SDS011;34578;0.000;0.000;2023-05-16T11:57:52;1.60;;;1.30;;
48777;SDS011;34578;0.000;0.000;2023-05-16T12:02:54;1.58;;;1.38;;
48777;SDS011;34578;0.000;0.000;2023-05-16T12:08:00;1.45;;;1.35;;
48777;SDS011;34578;0.000;0.000;2023-05-16T12:13:01;1.33;;;1.23;;
48777;SDS011;34578;0.000;0.000;2023-05-16T12:18:02;1.38;;;1.27;;
48777;SDS011;34578;0.000;0.000;2023-05-16T12:23:03;1.42;;;1.33;;
48777;SDS011;34578;0.000;0.000;2023-05-16T12:28:09;1.98;;;1.55;;
48777;SDS011;34578;0.000;0.000;2023-05-16T12:33:12;1.60;;;1.50;;
48777;SDS011;34578;0.000;0.000;2023-05-16T12:38:14;2.25;;;2.05;;
48777;SDS011;34578;0.000;0.000;2023-05-16T12:43:18;2.08;;;1.60;;
48777;SDS011;34578;0.000;0.000;2023-05-16T12:48:20;1.15;;;1.05;;
48777;SDS011;34578;0.000;0.000;2023-05-16T12:53:21;1.67;;;1.45;;
48777;SDS011;34578;0.000;0.000;2023-05-16T12:58:22;1.30;;;1.20;;
48777;SDS011;34578;0.000;0.000;2023-05-16T13:03:22;1.83;;;1.37;;
48777;SDS011;34578;0.000;0.000;2023-05-16T13:08:23;1.30;;;1.17;;
48777;SDS011;34578;0.000;0.000;2023-05-16T13:13:23;1.40;;;1.30;;
48777;SDS011;34578;0.000;0.000;2023-05-16T13:18:24;1.60;;;1.50;;
48777;SDS011;34578;0.000;0.000;2023-05-16T13:23:24;1.30;;;1.20;;
48777;SDS011;34578;0.000;0.000;2023-05-16T13:28:26;1.58;;;1.48;;
48777;SDS011;34578;0.000;0.000;2023-05-16T13:33:26;2.60;;;1.60;;
48777;SDS011;34578;0.000;0.000;2023-05-16T13:38:26;1.50;;;1.40;;
48777;SDS011;34578;0.000;0.000;2023-05-16T13:43:27;1.50;;;1.40;;
48777;SDS011;34578;0.000;0.000;2023-05-16T13:48:27;1.40;;;1.30;;
48777;SDS011;34578;0.000;0.000;2023-05-16T13:53:27;1.23;;;1.13;;
48777;SDS011;34578;0.000;0.000;2023-05-16T13:58:28;2.00;;;1.40;;
48777;SDS011;34578;0.000;0.000;2023-05-16T14:03:28;1.30;;;1.20;;
48777;SDS011;34578;0.000;0.000;2023-05-16T14:08:29;1.63;;;1.52;;
48777;SDS011;34578;0.000;0.000;2023-05-16T14:13:29;1.80;;;1.30;;
48777;SDS011;34578;0.000;0.000;2023-05-16T14:18:29;1.58;;;1.25;;
48777;SDS011;34578;0.000;0.000;2023-05-16T14:23:30;2.57;;;1.80;;
48777;SDS011;34578;0.000;0.000;2023-05-16T14:28:30;2.00;;;1.43;;
48777;SDS011;34578;0.000;0.000;2023-05-16T14:33:33;3.17;;;1.60;;
48777;SDS011;34578;0.000;0.000;2023-05-16T14:38:34;5.82;;;1.50;;
48777;SDS011;34578;0.000;0.000;2023-05-16T14:43:34;4.78;;;2.00;;
48777;SDS011;34578;0.000;0.000;2023-05-16T14:48:35;2.77;;;1.30;;
48777;SDS011;34578;0.000;0.000;2023-05-16T14:53:35;6.53;;;1.92;;
48777;SDS011;34578;0.000;0.000;2023-05-16T14:58:36;2.47;;;1.60;;
48777;SDS011;34578;0.000;0.000;2023-05-16T15:03:36;3.93;;;1.50;;
48777;SDS011;34578;0.000;0.000;2023-05-16T15:08:37;2.30;;;1.33;;
48777;SDS011;34578;0.000;0.000;2023-05-16T15:13:37;2.92;;;1.40;;
48777;SDS011;34578;0.000;0.000;2023-05-16T15:18:38;6.63;;;1.70;;
48777;SDS011;34578;0.000;0.000;2023-05-16T15:23:39;2.95;;;1.70;;
48777;SDS011;34578;0.000;0.000;2023-05-16T15:28:41;4.22;;;1.75;;
48777;SDS011;34578;0.000;0.000;2023-05-16T15:33:41;8.23;;;1.97;;
48777;SDS011;34578;0.000;0.000;2023-05-16T15:38:43;3.45;;;1.73;;
48777;SDS011;34578;0.000;0.000;2023-05-16T15:43:44;4.35;;;1.70;;
48777;SDS011;34578;0.000;0.000;2023-05-16T15:48:45;4.88;;;1.67;;
48777;SDS011;34578;0.000;0.000;2023-05-16T15:53:46;4.27;;;1.60;;
48777;SDS011;34578;0.000;0.000;2023-05-16T15:58:46;1.58;;;1.27;;
48777;SDS011;34578;0.000;0.000;2023-05-16T16:03:47;1.57;;;1.40;;
48777;SDS011;34578;0.000;0.000;2023-05-16T16:08:47;2.38;;;1.50;;
48777;SDS011;34578;0.000;0.000;2023-05-16T16:13:48;3.37;;;1.70;;
48777;SDS011;34578;0.000;0.000;2023-05-16T16:18:48;3.35;;;1.63;;
48777;SDS011;34578;0.000;0.000;2023-05-16T16:23:49;7.32;;;1.95;;
48777;SDS011;34578;0.000;0.000;2023-05-16T16:28:49;5.37;;;1.57;;
48777;SDS011;34578;0.000;0.000;2023-05-16T16:33:50;1.60;;;1.50;;
48777;SDS011;34578;0.000;0.000;2023-05-16T16:38:50;4.30;;;1.33;;
48777;SDS011;34578;0.000;0.000;2023-05-16T16:43:50;2.80;;;1.73;;
48777;SDS011;34578;0.000;0.000;2023-05-16T16:48:51;4.25;;;1.60;;
48777;SDS011;34578;0.000;0.000;2023-05-16T16:53:53;5.30;;;1.48;;
48777;SDS011;34578;0.000;0.000;2023-05-16T16:58:54;2.27;;;1.47;;
48777;SDS011;34578;0.000;0.000;2023-05-16T17:03:54;3.50;;;1.40;;
48777;SDS011;34578;0.000;0.000;2023-05-16T17:08:55;6.82;;;1.48;;
48777;SDS011;34578;0.000;0.000;2023-05-16T17:13:56;5.88;;;1.50;;
48777;SDS011;34578;0.000;0.000;2023-05-16T17:19:00;4.25;;;1.60;;
48777;SDS011;34578;0.000;0.000;2023-05-16T17:24:04;4.25;;;1.55;;
48777;SDS011;34578;0.000;0.000;2023-05-16T17:29:08;3.17;;;1.60;;
48777;SDS011;34578;0.000;0.000;2023-05-16T17:34:08;7.40;;;1.37;;
48777;SDS011;34578;0.000;0.000;2023-05-16T17:39:09;7.32;;;1.30;;
48777;SDS011;34578;0.000;0.000;2023-05-16T17:44:10;3.92;;;1.50;;
48777;SDS011;34578;0.000;0.000;2023-05-16T17:49:10;2.50;;;1.60;;
48777;SDS011;34578;0.000;0.000;2023-05-16T17:54:11;4.82;;;1.40;;
48777;SDS011;34578;0.000;0.000;2023-05-16T17:59:12;1.80;;;1.25;;
48777;SDS011;34578;0.000;0.000;2023-05-16T18:04:12;5.03;;;1.33;;
48777;SDS011;34578;0.000;0.000;2023-05-16T18:09:13;2.53;;;1.52;;
48777;SDS011;34578;0.000;0.000;2023-05-16T18:14:14;3.83;;;1.08;;
48777;SDS011;34578;0.000;0.000;2023-05-16T18:19:14;1.63;;;1.07;;
48777;SDS011;34578;0.000;0.000;2023-05-16T18:24:15;4.22;;;1.42;;
48777;SDS011;34578;0.000;0.000;2023-05-16T18:29:15;3.10;;;1.50;;
48777;SDS011;34578;0.000;0.000;2023-05-16T18:34:16;3.33;;;1.40;;
48777;SDS011;34578;0.000;0.000;2023-05-16T18:39:16;2.07;;;1.37;;
48777;SDS011;34578;0.000;0.000;2023-05-16T18:44:17;1.35;;;1.25;;
48777;SDS011;34578;0.000;0.000;2023-05-16T18:49:19;3.38;;;1.23;;
48777;SDS011;34578;0.000;0.000;2023-05-16T18:54:19;5.57;;;2.10;;
48777;SDS011;34578;0.000;0.000;2023-05-16T18:59:20;2.50;;;1.10;;
48777;SDS011;34578;0.000;0.000;2023-05-16T19:04:20;4.00;;;1.23;;
48777;SDS011;34578;0.000;0.000;2023-05-16T19:09:21;4.45;;;1.45;;
48777;SDS011;34578;0.000;0.000;2023-05-16T19:14:22;1.27;;;1.05;;
48777;SDS011;34578;0.000;0.000;2023-05-16T19:19:22;2.93;;;1.73;;
48777;SDS011;34578;0.000;0.000;2023-05-16T19:24:23;2.15;;;1.27;;
48777;SDS011;34578;0.000;0.000;2023-05-16T19:29:23;3.15;;;1.10;;
48777;SDS011;34578;0.000;0.000;2023-05-16T19:34:24;3.47;;;1.27;;
48777;SDS011;34578;0.000;0.000;2023-05-16T19:39:25;1.60;;;1.10;;
48777;SDS011;34578;0.000;0.000;2023-05-16T19:44:25;2.13;;;1.10;;
48777;SDS011;34578;0.000;0.000;2023-05-16T19:49:26;1.87;;;1.40;;
48777;SDS011;34578;0.000;0.000;2023-05-16T19:54:26;1.00;;;0.90;;
48777;SDS011;34578;0.000;0.000;2023-05-16T19:59:27;2.05;;;1.75;;
48777;SDS011;34578;0.000;0.000;2023-05-16T20:04:27;1.30;;;0.98;;
48777;SDS011;34578;0.000;0.000;2023-05-16T20:09:27;1.03;;;0.80;;
48777;SDS011;34578;0.000;0.000;2023-05-16T20:14:28;1.40;;;1.03;;
48777;SDS011;34578;0.000;0.000;2023-05-16T20:19:28;1.50;;;1.17;;
48777;SDS011;34578;0.000;0.000;2023-05-16T20:24:29;2.37;;;1.03;;
48777;SDS011;34578;0.000;0.000;2023-05-16T20:29:29;2.40;;;1.40;;
48777;SDS011;34578;0.000;0.000;2023-05-16T20:34:32;1.30;;;0.80;;
48777;SDS011;34578;0.000;0.000;2023-05-16T20:39:32;1.70;;;1.17;;
48777;SDS011;34578;0.000;0.000;2023-05-16T20:44:33;2.30;;;1.27;;
48777;SDS011;34578;0.000;0.000;2023-05-16T20:49:34;1.20;;;1.00;;
48777;SDS011;34578;0.000;0.000;2023-05-16T20:54:38;2.65;;;1.20;;
48777;SDS011;34578;0.000;0.000;2023-05-16T20:59:40;2.33;;;0.93;;
48777;SDS011;34578;0.000;0.000;2023-05-16T21:04:41;6.10;;;1.50;;
48777;SDS011;34578;0.000;0.000;2023-05-16T21:09:41;3.83;;;1.30;;
48777;SDS011;34578;0.000;0.000;2023-05-16T21:14:41;2.63;;;1.17;;
48777;SDS011;34578;0.000;0.000;2023-05-16T21:19:43;4.18;;;1.10;;
48777;SDS011;34578;0.000;0.000;2023-05-16T21:24:43;1.90;;;1.10;;
48777;SDS011;34578;0.000;0.000;2023-05-16T21:29:43;4.17;;;1.20;;
48777;SDS011;34578;0.000;0.000;2023-05-16T21:34:44;3.67;;;1.63;;
48777;SDS011;34578;0.000;0.000;2023-05-16T21:39:44;3.20;;;1.27;;
48777;SDS011;34578;0.000;0.000;2023-05-16T21:44:45;3.57;;;1.20;;
48777;SDS011;34578;0.000;0.000;2023-05-16T21:49:45;2.87;;;1.90;;
48777;SDS011;34578;0.000;0.000;2023-05-16T21:54:45;3.17;;;1.37;;
48777;SDS011;34578;0.000;0.000;2023-05-16T21:59:50;2.10;;;1.17;;
48777;SDS011;34578;0.000;0.000;2023-05-16T22:04:51;3.33;;;1.20;;
48777;SDS011;34578;0.000;0.000;2023-05-16T22:09:52;1.50;;;1.00;;
48777;SDS011;34578;0.000;0.000;2023-05-16T22:14:53;3.50;;;1.25;;
48777;SDS011;34578;0.000;0.000;2023-05-16T22:19:54;3.23;;;1.07;;
48777;SDS011;34578;0.000;0.000;2023-05-16T22:24:54;3.15;;;1.27;;
48777;SDS011;34578;0.000;0.000;2023-05-16T22:29:55;1.67;;;1.17;;
48777;SDS011;34578;0.000;0.000;2023-05-16T22:34:55;1.83;;;1.10;;
48777;SDS011;34578;0.000;0.000;2023-05-16T22:39:56;2.10;;;1.20;;
48777;SDS011;34578;0.000;0.000;2023-05-16T22:44:56;2.77;;;1.30;;
48777;SDS011;34578;0.000;0.000;2023-05-16T22:49:57;2.00;;;1.10;;
48777;SDS011;34578;0.000;0.000;2023-05-16T22:54:57;2.10;;;1.10;;
48777;SDS011;34578;0.000;0.000;2023-05-16T22:59:59;1.83;;;1.30;;
48777;SDS011;34578;0.000;0.000;2023-05-16T23:04:59;2.50;;;0.97;;
48777;SDS011;34578;0.000;0.000;2023-05-16T23:10:00;1.93;;;1.20;;
48777;SDS011;34578;0.000;0.000;2023-05-16T23:15:00;1.80;;;0.90;;
48777;SDS011;34578;0.000;0.000;2023-05-16T23:20:01;3.03;;;1.03;;
48777;SDS011;34578;0.000;0.000;2023-05-16T23:25:01;4.20;;;1.53;;
48777;SDS011;34578;0.000;0.000;2023-05-16T23:30:01;2.10;;;0.73;;
48777;SDS011;34578;0.000;0.000;2023-05-16T23:35:02;2.15;;;1.20;;
48777;SDS011;34578;0.000;0.000;2023-05-16T23:40:03;1.60;;;1.30;;
48777;SDS011;34578;0.000;0.000;2023-05-16T23:45:04;1.67;;;0.98;;
48777;SDS011;34578;0.000;0.000;2023-05-16T23:50:05;2.00;;;0.95;;
48777;SDS011;34578;0.000;0.000;2023-05-16T23:55:06;1.55;;;0.90;;
